Terminal Aerodrome Forecast
Issued by NWS Blacksburg, VA

Home | Current Version | Previous Version | Text Only | Print | Product List | Glossary On
Versions: 1 2 3 4 5 6 7 8 9 10 11 12 13 14 15 16 17 18 19 20 21 22 23 24 25 26 27 28 29 30 31
000
FTUS41 KRNK 112331
TAFBLF
TAF
KBLF 112331Z 1200/1224 30007KT P6SM SKC
     FM120500 VRB04KT P6SM OVC120
     FM121400 17005KT 1SM -SN BR BKN015 OVC035
     FM121900 29010G18KT 3SM -SHSN BR OVC015=

USA.gov is the U.S. government's official web portal to all federal, state and local government web resources and services.